Time;durP1;ratioP1;P1;durP2;ratioP2;P2;SDS_P1;SDS_P2;PMS_P1;PMS_P2;Temp;Humidity;BMP_temperature;BMP_pressure;BME280_temperature;BME280_humidity;BME280_pressure;Samples;Min_cycle;Max_cycle;Signal;HPM_P1;HPM_P2
2023/06/06 00:02:09;;;;;;;11.13;3.03;;;;;;;19.44;40.62;95554.69;5039353;28;20110;-80
2023/06/06 00:04:35;;;;;;;10.30;2.72;;;;;;;19.35;40.44;95527.03;5039811;28;20032;-80
2023/06/06 00:07:04;;;;;;;5.63;2.40;;;;;;;19.48;40.35;95557.56;5057940;28;20036;-80
2023/06/06 00:09:30;;;;;;;6.90;2.25;;;;;;;19.50;40.44;95558.03;5039829;28;20036;-80
2023/06/06 00:11:56;;;;;;;5.70;2.20;;;;;;;19.36;39.82;95528.59;5057525;28;20029;-80
2023/06/06 00:14:22;;;;;;;4.22;2.40;;;;;;;19.53;40.38;95570.84;5057938;28;20025;-80
2023/06/06 00:16:48;;;;;;;3.47;2.10;;;;;;;19.15;40.03;95506.16;5039561;28;20041;-80
2023/06/06 00:19:20;;;;;;;3.50;1.98;;;;;;;19.01;39.90;95495.59;5057812;28;20124;-80
2023/06/06 00:21:46;;;;;;;5.78;2.00;;;;;;;19.42;40.12;95554.22;5039316;28;20037;-80
2023/06/06 00:24:11;;;;;;;6.68;2.35;;;;;;;19.36;39.98;95549.34;5039496;28;20124;-80
2023/06/06 00:26:37;;;;;;;7.72;2.20;;;;;;;18.98;40.05;95480.13;5057532;28;20053;-81
2023/06/06 00:29:02;;;;;;;5.75;2.40;;;;;;;18.74;40.83;95461.84;5024640;28;20130;-80
2023/06/06 00:31:27;;;;;;;7.45;2.38;;;;;;;19.25;40.66;95543.50;5034388;28;20037;-80
2023/06/06 00:33:53;;;;;;;7.72;2.55;;;;;;;19.07;41.28;95531.19;5039256;28;20665;-80
2023/06/06 00:36:18;;;;;;;4.78;2.08;;;;;;;19.24;40.74;95564.22;5057119;28;20037;-80
2023/06/06 00:38:44;;;;;;;5.93;2.15;;;;;;;19.07;40.30;95509.69;5038485;28;20032;-80
2023/06/06 00:41:11;;;;;;;2.80;1.88;;;;;;;19.13;39.73;95546.84;5057385;28;20032;-80
2023/06/06 00:43:37;;;;;;;7.25;2.30;;;;;;;18.37;40.10;95443.66;5039197;28;20087;-80
2023/06/06 00:46:02;;;;;;;4.35;2.05;;;;;;;18.66;39.76;95483.31;5057079;28;20036;-80
2023/06/06 00:48:28;;;;;;;6.43;2.40;;;;;;;19.16;39.48;95553.47;5038843;28;20040;-80
2023/06/06 00:50:54;;;;;;;5.70;2.40;;;;;;;18.94;39.56;95549.06;5039594;28;20034;-80
2023/06/06 00:53:20;;;;;;;4.13;2.15;;;;;;;19.14;39.08;95561.88;5038946;28;20037;-80
2023/06/06 00:55:46;;;;;;;6.70;2.47;;;;;;;18.95;38.75;95549.84;5056787;28;20179;-80
2023/06/06 00:58:12;;;;;;;5.57;1.92;;;;;;;19.01;38.30;95562.00;5038507;28;20079;-80
2023/06/06 01:00:39;;;;;;;3.95;1.95;;;;;;;18.97;38.22;95564.56;5057085;28;20110;-80
2023/06/06 01:03:09;;;;;;;5.13;1.90;;;;;;;18.84;38.16;95530.59;5038757;28;20053;-80
2023/06/06 01:05:36;;;;;;;3.90;1.70;;;;;;;18.32;38.10;95467.94;5026581;28;20036;-80
2023/06/06 01:08:01;;;;;;;3.67;1.65;;;;;;;18.82;37.85;95543.53;5018866;28;20037;-80
2023/06/06 01:10:28;;;;;;;6.40;1.92;;;;;;;18.47;37.77;95492.44;5030705;28;20064;-80
2023/06/06 01:13:10;;;;;;;3.45;1.60;;;;;;;18.91;38.22;95565.03;5045141;28;20038;-80
2023/06/06 01:15:45;;;;;;;6.50;1.80;;;;;;;18.73;38.25;95524.72;5018203;28;20037;-80
2023/06/06 01:18:12;;;;;;;6.57;1.77;;;;;;;18.58;38.31;95519.81;5018095;28;20045;-80
2023/06/06 01:20:42;;;;;;;3.80;1.80;;;;;;;18.20;38.65;95482.00;5035532;28;20400;-80
2023/06/06 01:23:12;;;;;;;4.93;1.77;;;;;;;18.75;38.70;95567.41;5032110;28;20036;-80
2023/06/06 01:25:45;;;;;;;2.10;1.40;;;;;;;18.71;38.76;95569.91;5044119;28;20029;-80
2023/06/06 01:28:13;;;;;;;2.75;1.40;;;;;;;18.47;38.84;95546.16;5029638;28;20072;-80
2023/06/06 01:30:41;;;;;;;5.25;1.83;;;;;;;18.59;39.16;95560.91;5018420;28;20037;-80
2023/06/06 01:33:17;;;;;;;5.78;1.40;;;;;;;18.63;39.20;95564.53;5035895;28;20037;-80
2023/06/06 01:35:52;;;;;;;4.40;1.73;;;;;;;18.63;40.10;95577.97;5035545;28;20041;-80
2023/06/06 01:38:26;;;;;;;2.80;1.40;;;;;;;18.61;40.13;95566.75;5017846;28;20492;-80
2023/06/06 01:40:56;;;;;;;2.95;1.38;;;;;;;18.47;40.71;95561.47;5017987;28;20449;-80
2023/06/06 01:43:24;;;;;;;2.60;1.20;;;;;;;18.46;40.81;95568.75;5035868;28;20446;-80
2023/06/06 01:45:51;;;;;;;3.80;1.65;;;;;;;18.46;40.68;95576.78;5017510;28;20124;-80
2023/06/06 01:48:18;;;;;;;10.00;1.83;;;;;;;18.51;40.81;95568.63;5034570;28;20459;-80
2023/06/06 01:50:45;;;;;;;4.78;1.85;;;;;;;18.61;41.17;95578.31;5033766;28;20064;-80
2023/06/06 01:53:10;;;;;;;6.57;1.40;;;;;;;18.58;41.65;95567.38;5034518;28;20033;-80
2023/06/06 01:55:36;;;;;;;8.82;1.73;;;;;;;18.33;41.91;95550.09;5035538;28;20048;-80
2023/06/06 01:58:03;;;;;;;4.25;1.55;;;;;;;18.36;41.70;95549.47;5037143;28;20029;-80
2023/06/06 02:00:29;;;;;;;3.33;1.60;;;;;;;18.09;41.96;95511.03;5055508;28;20040;-80
2023/06/06 02:02:54;;;;;;;4.20;1.50;;;;;;;18.25;42.22;95529.38;5037719;28;20137;-80
2023/06/06 02:05:20;;;;;;;2.28;1.48;;;;;;;18.48;42.27;95574.59;5055180;28;20040;-80
2023/06/06 02:07:49;;;;;;;2.55;1.45;;;;;;;18.51;42.71;95579.34;5036987;28;20040;-80
2023/06/06 02:10:15;;;;;;;4.10;2.00;;;;;;;18.48;42.32;95571.91;5054668;28;20037;-80
2023/06/06 02:12:41;;;;;;;6.85;1.80;;;;;;;18.32;42.55;95549.28;5035955;28;20583;-79
2023/06/06 02:15:09;;;;;;;4.30;1.60;;;;;;;18.39;42.45;95562.25;5036324;28;20048;-79
2023/06/06 02:17:35;;;;;;;7.57;2.00;;;;;;;18.39;42.67;95570.31;5054678;28;20063;-79
2023/06/06 02:20:01;;;;;;;5.63;1.63;;;;;;;18.09;42.85;95529.03;5037015;28;20045;-79
2023/06/06 02:22:26;;;;;;;5.15;1.80;;;;;;;18.35;43.20;95564.78;5036548;28;20044;-81
2023/06/06 02:24:52;;;;;;;6.40;2.00;;;;;;;18.22;43.48;95554.19;5037283;28;20044;-81
2023/06/06 02:27:19;;;;;;;5.68;1.50;;;;;;;18.32;43.57;95575.34;5020228;28;20044;-80
2023/06/06 02:29:45;;;;;;;6.57;2.00;;;;;;;18.05;43.88;95538.81;5033519;28;20051;-81
2023/06/06 02:32:11;;;;;;;5.80;2.10;;;;;;;17.94;43.95;95529.44;5036702;28;20663;-80
2023/06/06 02:34:37;;;;;;;2.80;1.75;;;;;;;18.05;44.50;95550.34;5020223;28;20037;-80
2023/06/06 02:37:06;;;;;;;7.90;1.92;;;;;;;17.82;44.57;95523.91;5017172;28;20055;-80
2023/06/06 02:39:33;;;;;;;6.18;2.05;;;;;;;18.12;44.71;95587.47;5034294;28;20036;-81
2023/06/06 02:41:59;;;;;;;6.60;2.08;;;;;;;17.98;45.00;95574.16;5037152;28;20045;-81
2023/06/06 02:44:26;;;;;;;3.50;1.80;;;;;;;18.18;45.03;95605.00;5035113;28;20033;-80
2023/06/06 02:46:52;;;;;;;5.25;1.95;;;;;;;17.99;45.52;95591.84;5036970;28;20068;-80
2023/06/06 02:49:17;;;;;;;11.38;2.20;;;;;;;17.95;45.63;95580.13;5036909;28;20098;-80
2023/06/06 02:51:43;;;;;;;5.22;1.83;;;;;;;17.73;45.84;95550.69;5055087;28;20056;-80
2023/06/06 02:54:08;;;;;;;5.97;2.28;;;;;;;17.56;45.85;95527.22;5036985;28;20036;-80
2023/06/06 02:56:34;;;;;;;3.70;1.95;;;;;;;17.45;45.70;95514.41;5020977;28;20507;-80
2023/06/06 02:58:59;;;;;;;4.20;2.10;;;;;;;17.95;45.97;95600.81;5017729;28;20033;-80
2023/06/06 03:01:25;;;;;;;2.92;1.90;;;;;;;17.87;45.96;95585.47;5017479;28;20633;-80
2023/06/06 03:03:51;;;;;;;6.43;1.50;;;;;;;17.89;45.75;95592.09;5035454;28;20048;-80
2023/06/06 03:06:16;;;;;;;5.78;2.20;;;;;;;17.69;46.21;95579.25;5017465;28;20490;-81
2023/06/06 03:08:45;;;;;;;3.38;1.50;;;;;;;17.81;46.09;95600.91;5042438;28;20029;-80
2023/06/06 03:11:11;;;;;;;7.30;1.83;;;;;;;17.92;45.97;95614.84;5058880;28;20055;-80
2023/06/06 03:13:37;;;;;;;4.82;1.83;;;;;;;17.45;46.16;95541.22;5022443;28;20033;-80
2023/06/06 03:16:03;;;;;;;8.95;2.05;;;;;;;17.71;46.33;95596.59;5037988;28;20400;-80
2023/06/06 03:18:28;;;;;;;10.50;1.75;;;;;;;17.27;46.43;95538.44;5037909;28;20035;-80
2023/06/06 03:20:54;;;;;;;6.00;2.03;;;;;;;17.57;46.66;95587.03;5036981;28;20484;-80
2023/06/06 03:23:21;;;;;;;4.35;1.77;;;;;;;17.08;46.62;95510.28;5036895;28;20043;-80
2023/06/06 03:25:51;;;;;;;5.43;2.00;;;;;;;17.76;47.00;95625.19;5023150;28;20033;-81
2023/06/06 03:28:18;;;;;;;4.10;1.77;;;;;;;17.58;47.15;95586.72;5063112;28;20044;-81
2023/06/06 03:30:47;;;;;;;13.95;2.45;;;;;;;17.63;47.16;95591.97;5045310;28;20534;-80
2023/06/06 03:33:14;;;;;;;8.18;1.48;;;;;;;17.80;46.96;95611.94;5034148;28;20034;-80
2023/06/06 03:35:40;;;;;;;10.43;2.28;;;;;;;17.77;47.12;95624.09;5031986;28;20048;-80
2023/06/06 03:38:05;;;;;;;10.93;2.80;;;;;;;17.57;47.15;95581.66;5054350;28;20045;-80
2023/06/06 03:40:31;;;;;;;5.82;1.92;;;;;;;17.12;47.43;95513.91;5021720;28;20124;-80
2023/06/06 03:42:57;;;;;;;4.43;1.77;;;;;;;17.67;47.63;95614.41;5016482;28;20037;-80
2023/06/06 03:45:22;;;;;;;7.72;2.30;;;;;;;17.51;47.77;95578.31;4999639;28;20124;-80
2023/06/06 03:47:49;;;;;;;6.47;2.40;;;;;;;17.71;47.73;95617.25;5029313;28;20041;-80
2023/06/06 03:50:15;;;;;;;4.13;1.80;;;;;;;17.44;47.69;95577.97;5040059;28;20049;-80
2023/06/06 03:52:41;;;;;;;14.85;2.35;;;;;;;17.56;47.44;95588.13;5030160;28;20044;-80
2023/06/06 03:55:07;;;;;;;2.78;1.58;;;;;;;17.64;47.72;95604.28;5035815;28;20040;-80
2023/06/06 03:57:37;;;;;;;4.57;1.92;;;;;;;17.74;48.01;95620.13;5035573;28;20033;-80
2023/06/06 04:00:10;;;;;;;7.10;2.13;;;;;;;17.68;47.87;95607.97;5053386;28;20037;-80
2023/06/06 04:02:37;;;;;;;12.50;2.33;;;;;;;17.61;47.83;95591.50;5053643;28;20080;-80
2023/06/06 04:05:04;;;;;;;6.32;2.25;;;;;;;17.08;47.83;95499.56;5037443;28;20488;-80
2023/06/06 04:07:31;;;;;;;5.03;2.03;;;;;;;17.48;47.98;95565.50;5013564;28;20451;-80
2023/06/06 04:09:57;;;;;;;9.65;2.50;;;;;;;17.84;47.86;95618.28;5013221;28;20060;-79
2023/06/06 04:12:22;;;;;;;6.57;2.22;;;;;;;17.81;48.03;95618.91;5043638;28;20491;-80
2023/06/06 04:14:48;;;;;;;7.80;1.85;;;;;;;17.66;47.90;95569.91;5047040;28;20037;-80
2023/06/06 04:17:13;;;;;;;4.65;2.13;;;;;;;17.97;48.29;95606.66;5049190;28;20041;-80
2023/06/06 04:19:39;;;;;;;7.50;2.33;;;;;;;17.94;48.22;95616.13;5067076;28;20040;-79
2023/06/06 04:22:05;;;;;;;4.93;2.50;;;;;;;17.98;48.19;95610.94;5034911;28;20430;-80
2023/06/06 04:24:31;;;;;;;5.55;2.55;;;;;;;17.85;48.84;95623.31;5021329;28;20063;-80
2023/06/06 04:27:05;;;;;;;8.40;2.45;;;;;;;17.81;48.64;95606.28;5023066;28;20128;-79
2023/06/06 04:29:36;;;;;;;11.75;3.25;;;;;;;17.84;48.84;95605.66;5019962;28;20204;-79
2023/06/06 04:32:03;;;;;;;9.23;2.38;;;;;;;17.56;49.24;95572.03;5029619;28;20040;-79
2023/06/06 04:34:30;;;;;;;7.72;2.30;;;;;;;17.87;49.12;95606.94;5025953;28;20030;-79
2023/06/06 04:37:03;;;;;;;8.13;2.80;;;;;;;17.74;48.77;95582.56;5004765;28;20119;-80
2023/06/06 04:39:35;;;;;;;9.50;1.98;;;;;;;17.94;49.10;95597.31;5021781;28;20033;-80
2023/06/06 04:42:02;;;;;;;5.95;2.08;;;;;;;18.06;49.25;95615.53;5025790;28;20044;-80
2023/06/06 04:44:28;;;;;;;7.22;2.50;;;;;;;17.79;49.03;95573.59;5030585;28;20090;-80
2023/06/06 04:47:00;;;;;;;10.77;2.40;;;;;;;17.63;49.00;95537.53;5015495;28;20041;-79
2023/06/06 04:49:35;;;;;;;5.20;2.45;;;;;;;17.94;49.11;95597.31;5003263;28;20041;-79
2023/06/06 04:52:03;;;;;;;9.75;2.88;;;;;;;17.86;48.62;95568.56;5030475;28;20114;-79
2023/06/06 04:54:30;;;;;;;10.43;1.98;;;;;;;18.16;48.59;95607.19;5046484;28;20508;-79
2023/06/06 04:56:56;;;;;;;5.03;1.88;;;;;;;18.30;48.69;95621.31;5017023;28;20140;-79
2023/06/06 04:59:22;;;;;;;7.80;2.00;;;;;;;18.32;48.79;95621.78;5019948;28;20033;-79
2023/06/06 05:01:49;;;;;;;6.93;2.35;;;;;;;18.34;48.90;95616.91;5028841;28;20039;-79
2023/06/06 05:04:15;;;;;;;8.98;2.53;;;;;;;18.41;48.60;95616.44;5018363;28;20053;-80
2023/06/06 05:06:41;;;;;;;5.82;2.20;;;;;;;18.04;48.69;95556.00;5035836;28;20041;-82
2023/06/06 05:09:07;;;;;;;7.90;2.88;;;;;;;17.76;48.65;95504.47;5046724;28;20094;-81
2023/06/06 05:11:33;;;;;;;6.35;2.42;;;;;;;18.11;48.50;95562.50;5022166;28;20112;-81
2023/06/06 05:13:59;;;;;;;9.27;2.75;;;;;;;17.93;48.90;95533.22;5025901;28;20363;-82
2023/06/06 05:16:25;;;;;;;14.48;2.55;;;;;;;18.49;48.69;95618.34;5043814;28;20048;-85
2023/06/06 05:18:50;;;;;;;9.98;3.28;;;;;;;17.99;48.62;95532.81;5048945;28;20140;-81
2023/06/06 05:21:16;;;;;;;10.52;2.38;;;;;;;18.43;48.82;95609.66;5021418;28;20570;-84
2023/06/06 05:23:41;;;;;;;4.32;2.10;;;;;;;18.00;48.54;95531.69;5043529;28;20163;-83
2023/06/06 05:26:07;;;;;;;8.70;2.22;;;;;;;17.90;48.04;95509.72;5036331;28;20029;-80
2023/06/06 05:28:32;;;;;;;8.32;2.33;;;;;;;18.39;47.77;95583.72;5039059;28;20033;-81
2023/06/06 05:30:58;;;;;;;7.80;2.53;;;;;;;18.38;47.92;95572.22;5043210;28;20036;-82
2023/06/06 05:33:26;;;;;;;3.65;1.92;;;;;;;18.35;48.33;95564.00;5045024;28;20397;-83
2023/06/06 05:35:55;;;;;;;9.30;2.47;;;;;;;18.35;48.41;95559.41;5022824;28;20050;-84
2023/06/06 05:38:21;;;;;;;7.47;2.03;;;;;;;18.79;47.96;95622.06;5027592;28;20033;-84
2023/06/06 05:40:47;;;;;;;5.38;2.22;;;;;;;17.72;46.81;95466.75;5029712;28;20080;-85
2023/06/06 05:43:14;;;;;;;12.32;2.45;;;;;;;18.69;47.49;95617.03;5030629;28;20029;-87
2023/06/06 05:45:40;;;;;;;5.13;1.95;;;;;;;18.64;47.18;95604.53;5048184;28;20033;-88
2023/06/06 05:48:05;;;;;;;9.20;2.10;;;;;;;18.80;46.99;95629.03;5030312;28;20025;-85
2023/06/06 05:50:31;;;;;;;6.75;2.42;;;;;;;17.42;47.05;95395.16;5042426;28;20465;-85
2023/06/06 05:52:57;;;;;;;5.32;2.25;;;;;;;18.88;46.26;95612.13;5029130;28;20365;-83
2023/06/06 05:55:27;;;;;;;16.67;2.78;;;;;;;18.47;46.15;95548.06;5022050;28;20040;-89
2023/06/06 05:57:53;;;;;;;15.40;4.10;;;;;;;18.95;46.04;95609.75;5039648;28;20041;-84
2023/06/06 06:00:22;;;;;;;10.57;3.40;;;;;;;18.83;46.04;95583.53;5026389;28;20466;-85
2023/06/06 06:02:51;;;;;;;14.05;3.45;;;;;;;18.65;45.96;95549.69;5021254;28;20049;-85
2023/06/06 06:05:18;;;;;;;17.55;3.40;;;;;;;17.17;45.69;95299.38;5043677;28;20025;-86
2023/06/06 06:07:44;;;;;;;17.75;3.38;;;;;;;18.88;45.74;95551.13;5031844;28;20579;-85
2023/06/06 06:10:10;;;;;;;23.65;4.45;;;;;;;18.86;46.09;95547.16;5024942;28;20025;-85
2023/06/06 06:12:36;;;;;;;27.60;4.93;;;;;;;19.07;45.83;95571.53;5024289;28;20602;-83
2023/06/06 06:15:02;;;;;;;26.65;5.22;;;;;;;19.10;45.88;95563.59;5021945;28;20032;-83
2023/06/06 06:17:27;;;;;;;19.63;4.30;;;;;;;19.01;45.46;95535.13;5038968;28;20165;-82
2023/06/06 06:19:52;;;;;;;15.38;3.10;;;;;;;19.40;44.73;95583.31;5022930;28;20053;-84
2023/06/06 06:22:18;;;;;;;15.25;3.35;;;;;;;19.25;44.71;95557.72;5021239;28;20094;-85
2023/06/06 06:24:43;;;;;;;17.25;3.72;;;;;;;19.54;45.17;95607.38;5028505;28;20040;-87
2023/06/06 06:27:09;;;;;;;8.88;2.50;;;;;;;19.05;45.08;95511.91;5028643;28;20037;-82
2023/06/06 06:29:35;;;;;;;15.18;3.45;;;;;;;19.14;44.74;95512.69;5024005;28;20075;-85
2023/06/06 06:32:00;;;;;;;9.07;2.60;;;;;;;19.74;44.90;95595.94;5039804;28;20060;-80
2023/06/06 06:34:26;;;;;;;8.20;2.30;;;;;;;19.47;44.35;95564.03;5029960;28;20167;-83
2023/06/06 06:36:51;;;;;;;10.05;2.70;;;;;;;19.69;44.44;95571.88;5018676;28;20049;-83
2023/06/06 06:39:19;;;;;;;18.58;3.28;;;;;;;19.81;44.60;95590.88;5028320;28;20644;-85
2023/06/06 06:41:48;;;;;;;8.63;2.30;;;;;;;19.59;44.33;95540.75;5040296;28;20047;-83
2023/06/06 06:44:13;;;;;;;6.22;2.08;;;;;;;19.74;44.13;95560.19;5045515;28;20148;-86
2023/06/06 06:46:39;;;;;;;15.55;3.10;;;;;;;19.53;44.32;95533.19;5043497;28;20057;-85
2023/06/06 06:49:16;;;;;;;15.50;2.83;;;;;;;19.56;43.42;95529.84;5033018;28;20889;-87
2023/06/06 06:51:42;;;;;;;12.30;2.80;;;;;;;19.70;43.90;95516.19;5041168;28;21451;-86
2023/06/06 06:54:12;;;;;;;8.35;3.35;;;;;;;20.18;43.75;95578.53;5044625;28;20059;-86
2023/06/06 06:56:41;;;;;;;11.00;3.22;;;;;;;20.11;43.41;95561.28;5031744;28;20043;-83
2023/06/06 06:59:07;;;;;;;6.13;2.47;;;;;;;20.25;42.62;95576.09;5022890;28;20037;-84
2023/06/06 07:01:33;;;;;;;17.60;3.83;;;;;;;20.06;43.11;95543.44;5026493;28;20110;-83
2023/06/06 07:04:00;;;;;;;16.05;3.47;;;;;;;20.10;43.11;95552.41;5028448;28;20049;-83
2023/06/06 07:06:27;;;;;;;12.32;3.00;;;;;;;20.26;42.83;95572.31;5039356;28;20054;-86
2023/06/06 07:08:52;;;;;;;11.68;2.33;;;;;;;20.20;43.56;95562.84;5023942;28;20076;-85
2023/06/06 07:11:18;;;;;;;11.38;2.50;;;;;;;20.10;43.28;95514.72;5035073;28;20130;-83
2023/06/06 07:13:45;;;;;;;7.57;2.28;;;;;;;20.05;43.05;95501.47;5031554;28;20060;-83
2023/06/06 07:16:12;;;;;;;22.20;2.60;;;;;;;20.72;42.85;95584.88;5022248;28;20025;-87
2023/06/06 07:18:37;;;;;;;5.50;1.83;;;;;;;20.45;43.62;95544.94;5020097;28;20028;-84
2023/06/06 07:21:03;;;;;;;9.02;2.53;;;;;;;20.84;43.11;95586.84;5017970;28;20033;-84
2023/06/06 07:23:31;;;;;;;5.95;2.10;;;;;;;20.76;42.43;95558.84;5019045;28;20124;-84
2023/06/06 07:25:57;;;;;;;6.55;2.40;;;;;;;21.06;41.94;95583.81;5019503;28;20103;-85
2023/06/06 07:28:23;;;;;;;8.90;2.13;;;;;;;20.66;41.82;95515.34;5024243;28;20037;-85
2023/06/06 07:30:48;;;;;;;7.35;2.58;;;;;;;21.05;42.23;95559.91;5022259;28;20028;-85
2023/06/06 07:33:14;;;;;;;13.38;2.60;;;;;;;20.90;42.43;95533.56;5019339;28;20037;-88
2023/06/06 07:35:39;;;;;;;4.40;2.22;;;;;;;20.65;43.20;95509.16;5021935;28;20033;-84
2023/06/06 07:38:05;;;;;;;11.75;2.72;;;;;;;20.72;41.89;95492.47;5039436;28;20235;-84
2023/06/06 07:40:30;;;;;;;10.10;3.00;;;;;;;21.38;42.15;95568.03;5022797;28;20057;-89
2023/06/06 07:42:57;;;;;;;8.35;2.92;;;;;;;21.31;42.29;95549.69;5040940;28;20032;-83
2023/06/06 07:45:23;;;;;;;8.38;2.70;;;;;;;21.01;42.08;95502.34;5023279;28;20063;-82
2023/06/06 07:47:48;;;;;;;6.85;2.60;;;;;;;21.15;42.49;95554.09;5021179;28;20064;-82
2023/06/06 07:50:14;;;;;;;12.10;2.72;;;;;;;21.44;42.02;95589.06;5046140;28;20044;-83
2023/06/06 07:52:46;;;;;;;4.25;2.88;;;;;;;20.98;42.07;95493.00;5027268;28;20233;-82
2023/06/06 07:55:12;;;;;;;7.95;2.58;;;;;;;21.51;42.44;95578.53;5028300;28;20035;-84
2023/06/06 07:57:39;;;;;;;11.75;2.72;;;;;;;21.63;41.72;95585.09;5046234;28;20040;-82
2023/06/06 08:00:10;;;;;;;7.05;2.70;;;;;;;21.29;41.83;95514.16;5025325;28;20047;-82
2023/06/06 08:02:37;;;;;;;4.38;2.38;;;;;;;21.80;42.10;95582.22;5043089;28;20115;-82
2023/06/06 08:05:03;;;;;;;5.60;2.65;;;;;;;21.71;41.92;95551.81;5042776;28;21263;-83
2023/06/06 08:07:29;;;;;;;8.13;2.33;;;;;;;21.65;41.93;95526.97;5003915;28;20400;-82
2023/06/06 08:09:54;;;;;;;7.13;2.95;;;;;;;21.79;41.98;95557.13;5021295;28;20044;-80
2023/06/06 08:12:20;;;;;;;4.88;2.63;;;;;;;21.61;41.38;95520.66;5023139;28;20517;-82
2023/06/06 08:14:46;;;;;;;5.35;2.35;;;;;;;21.45;42.53;95511.63;5038695;28;20071;-81
2023/06/06 08:17:12;;;;;;;6.78;2.90;;;;;;;21.90;42.93;95574.44;5019891;28;20051;-82
2023/06/06 08:19:37;;;;;;;11.32;3.60;;;;;;;21.43;41.95;95516.56;5024686;28;20048;-81
2023/06/06 08:22:03;;;;;;;8.85;2.70;;;;;;;21.83;43.08;95568.03;5020978;28;20514;-80
2023/06/06 08:24:29;;;;;;;6.95;2.30;;;;;;;22.04;43.07;95581.50;5035539;28;20086;-81
2023/06/06 08:26:54;;;;;;;10.52;3.75;;;;;;;21.60;42.56;95512.88;5033855;28;20067;-83
2023/06/06 08:29:20;;;;;;;14.48;5.60;;;;;;;21.88;42.52;95579.41;5022408;28;20066;-81
2023/06/06 08:31:45;;;;;;;8.15;3.17;;;;;;;21.77;42.03;95553.19;5026703;28;20037;-80
2023/06/06 08:34:11;;;;;;;16.27;3.38;;;;;;;21.78;42.90;95562.84;5024965;28;20037;-81
2023/06/06 08:36:37;;;;;;;10.70;3.05;;;;;;;21.60;43.97;95548.75;5024300;28;20040;-82
2023/06/06 08:39:03;;;;;;;7.03;2.85;;;;;;;21.84;43.92;95570.41;5026311;28;20033;-82
2023/06/06 08:41:31;;;;;;;8.95;2.67;;;;;;;21.65;43.98;95543.16;5045966;28;20510;-87
2023/06/06 08:43:59;;;;;;;8.13;3.55;;;;;;;21.60;44.30;95542.56;5025860;28;20049;-82
2023/06/06 08:46:25;;;;;;;7.03;3.10;;;;;;;21.50;44.51;95520.31;5043161;28;20028;-83
2023/06/06 08:48:53;;;;;;;7.75;4.90;;;;;;;21.52;44.52;95526.13;5030605;28;20037;-85
2023/06/06 08:51:25;;;;;;;8.13;3.47;;;;;;;21.48;43.59;95519.06;5028708;28;20040;-84
2023/06/06 08:53:52;;;;;;;5.55;3.45;;;;;;;21.47;43.46;95514.78;5013492;28;20522;-86
2023/06/06 08:56:22;;;;;;;9.20;2.83;;;;;;;21.82;42.99;95545.63;5049561;28;20033;-85
2023/06/06 08:58:50;;;;;;;7.65;2.60;;;;;;;21.86;43.70;95549.25;5008508;28;20032;-86
2023/06/06 09:01:18;;;;;;;7.80;3.00;;;;;;;21.07;43.45;95428.22;5041148;28;20037;-86
2023/06/06 09:03:44;;;;;;;6.30;2.80;;;;;;;21.46;43.63;95495.09;5044398;28;20061;-86
2023/06/06 09:06:12;;;;;;;7.00;3.03;;;;;;;21.91;43.02;95540.13;5029097;28;20261;-87
2023/06/06 09:08:39;;;;;;;9.88;3.40;;;;;;;21.13;43.49;95433.06;5035171;28;20093;-88
2023/06/06 09:11:05;;;;;;;8.43;3.80;;;;;;;20.91;44.20;95395.72;5036152;28;20036;-89
2023/06/06 09:13:31;;;;;;;7.57;3.33;;;;;;;21.49;44.13;95474.75;5049198;28;20048;-86
2023/06/06 09:15:56;;;;;;;8.05;3.90;;;;;;;21.61;44.22;95495.56;5026804;28;20021;-85
2023/06/06 09:18:27;;;;;;;5.72;3.20;;;;;;;21.77;46.69;95485.69;5031458;28;20989;-86
2023/06/06 09:20:53;;;;;;;6.00;2.67;;;;;;;21.77;46.41;95491.88;5040133;28;20477;-83
2023/06/06 09:23:18;;;;;;;10.10;3.35;;;;;;;21.80;45.49;95474.22;5023551;28;20087;-83
2023/06/06 09:25:44;;;;;;;7.35;3.00;;;;;;;21.70;45.21;95445.75;5040376;28;20036;-84
2023/06/06 09:28:10;;;;;;;9.15;4.30;;;;;;;22.07;44.13;95491.69;5043629;28;20025;-86
2023/06/06 09:30:35;;;;;;;8.82;2.92;;;;;;;22.07;45.66;95502.47;5037885;28;20028;-85
2023/06/06 09:33:04;;;;;;;9.00;3.35;;;;;;;21.99;44.15;95479.06;5047418;28;20048;-83
2023/06/06 09:35:34;;;;;;;10.00;4.60;;;;;;;21.70;44.59;95442.28;5028152;28;20033;-85
2023/06/06 09:38:18;;;;;;;9.67;4.33;;;;;;;21.67;45.14;95418.63;5024910;28;20582;-87
2023/06/06 09:40:48;;;;;;;9.85;5.35;;;;;;;21.28;45.44;95345.38;5031416;28;20029;-85
2023/06/06 09:43:15;;;;;;;10.45;4.32;;;;;;;22.42;43.87;95419.03;5032122;28;20033;-84
2023/06/06 09:45:51;;;;;;;9.68;3.05;;;;;;;24.16;42.51;95516.41;5036349;28;20029;-84
2023/06/06 09:48:27;;;;;;;12.10;2.60;;;;;;;25.51;40.70;95519.28;5045012;28;20041;-83
2023/06/06 09:50:55;;;;;;;13.38;5.65;;;;;;;25.84;39.03;95389.09;5024554;28;20113;-84
2023/06/06 09:53:28;;;;;;;10.07;3.53;;;;;;;27.29;37.03;95485.44;5024992;28;20121;-86
2023/06/06 09:56:03;;;;;;;9.10;3.22;;;;;;;28.42;34.25;95494.66;5047295;28;20126;-83
2023/06/06 09:58:31;;;;;;;6.10;2.97;;;;;;;28.85;33.26;95447.72;5043121;28;20037;-84
2023/06/06 10:00:58;;;;;;;16.98;4.32;;;;;;;29.93;31.16;95503.84;5026931;28;20464;-85
2023/06/06 10:03:24;;;;;;;8.63;3.63;;;;;;;30.06;32.09;95484.34;5043070;28;20139;-82
2023/06/06 10:05:51;;;;;;;6.40;2.53;;;;;;;30.56;31.20;95446.75;5046081;28;20076;-85
2023/06/06 10:08:18;;;;;;;4.85;3.45;;;;;;;31.12;28.75;95475.13;5051011;28;20120;-84
2023/06/06 10:10:46;;;;;;;7.80;3.65;;;;;;;31.45;27.89;95458.91;5020829;28;20034;-84
2023/06/06 10:13:22;;;;;;;8.10;3.47;;;;;;;31.61;28.13;95439.25;5029795;28;20048;-88
2023/06/06 10:15:49;;;;;;;11.32;3.05;;;;;;;32.20;28.62;95472.09;5029159;28;20094;-83
2023/06/06 10:18:19;;;;;;;8.20;3.05;;;;;;;32.16;27.61;95457.66;5030136;28;20106;-85
2023/06/06 10:20:46;;;;;;;6.70;3.53;;;;;;;32.44;27.06;95484.03;5025906;28;20070;-85
2023/06/06 10:23:12;;;;;;;4.75;2.60;;;;;;;31.66;26.73;95320.16;5048990;28;20041;-86
2023/06/06 10:25:40;;;;;;;6.97;2.70;;;;;;;32.46;27.15;95411.09;5027008;28;20047;-82
2023/06/06 10:28:20;;;;;;;7.57;2.78;;;;;;;32.79;26.66;95480.19;5023211;28;20069;-84
2023/06/06 10:31:01;;;;;;;6.28;2.67;;;;;;;32.45;27.72;95427.94;5020686;28;20033;-82
2023/06/06 10:33:42;;;;;;;4.85;2.67;;;;;;;32.73;27.85;95470.84;5040431;28;20232;-83
2023/06/06 10:36:09;;;;;;;5.13;2.72;;;;;;;32.85;26.69;95459.31;5017240;28;20161;-82
2023/06/06 10:38:37;;;;;;;6.95;2.80;;;;;;;33.14;27.01;95473.47;5017056;28;20369;-83
2023/06/06 10:41:15;;;;;;;11.52;3.40;;;;;;;32.82;25.78;95438.16;5037547;28;20039;-84
2023/06/06 10:43:47;;;;;;;4.65;2.85;;;;;;;32.69;26.17;95467.34;5038160;28;20457;-82
2023/06/06 10:46:12;;;;;;;8.82;2.30;;;;;;;32.81;27.47;95456.59;5023694;28;20411;-81
2023/06/06 10:48:48;;;;;;;5.43;2.20;;;;;;;32.15;26.55;95382.78;5019027;28;20048;-84
2023/06/06 10:51:23;;;;;;;11.48;3.05;;;;;;;32.47;28.06;95451.06;5037086;28;20802;-84
2023/06/06 10:54:18;;;;;;;5.75;2.78;;;;;;;32.64;27.60;95452.06;5015147;28;20046;-82
2023/06/06 10:56:48;;;;;;;6.22;3.40;;;;;;;32.66;26.96;95430.47;5003306;28;20041;-82
2023/06/06 10:59:15;;;;;;;13.48;3.45;;;;;;;32.38;27.03;95436.25;5031464;28;20223;-82
2023/06/06 11:01:44;;;;;;;6.95;2.97;;;;;;;32.48;27.27;95449.09;5020817;28;20067;-81
2023/06/06 11:04:18;;;;;;;17.70;3.25;;;;;;;32.46;27.72;95391.88;5036677;28;20053;-82
2023/06/06 11:06:53;;;;;;;8.63;3.45;;;;;;;31.16;27.06;95215.66;5037607;28;20519;-83
2023/06/06 11:09:34;;;;;;;7.03;2.83;;;;;;;32.16;27.13;95370.63;5024307;28;20504;-83
2023/06/06 11:12:11;;;;;;;7.28;2.70;;;;;;;32.48;27.73;95422.44;5029829;28;20881;-84
2023/06/06 11:15:06;;;;;;;10.32;3.05;;;;;;;32.50;27.73;95414.56;5040514;28;20228;-87
2023/06/06 11:18:04;;;;;;;7.32;2.50;;;;;;;32.61;27.82;95410.91;5031245;28;20060;-85
2023/06/06 11:20:40;;;;;;;9.93;2.95;;;;;;;32.54;26.96;95374.13;5004071;28;20041;-85
2023/06/06 11:23:11;;;;;;;9.73;2.70;;;;;;;32.91;26.76;95395.28;5015495;28;20494;-85
2023/06/06 11:25:37;;;;;;;6.50;3.30;;;;;;;32.57;27.06;95339.59;5030810;28;20029;-84
2023/06/06 11:28:09;;;;;;;7.43;3.35;;;;;;;32.96;26.77;95383.03;4999562;28;20076;-82
2023/06/06 11:30:39;;;;;;;10.65;3.47;;;;;;;32.85;26.00;95349.44;5033152;28;20037;-84
2023/06/06 11:33:13;;;;;;;4.40;2.80;;;;;;;33.37;25.63;95410.38;5021550;28;20033;-84
2023/06/06 11:35:44;;;;;;;10.15;2.47;;;;;;;32.09;25.35;95222.53;5035074;28;20237;-85